sensor_id;sensor_type;location;lat;lon;timestamp;temperature;humidity
42841;DHT22;28491;46.898;7.660;2022-12-18T00:02:11;-2.40;73.40
42841;DHT22;28491;46.898;7.660;2022-12-18T00:04:37;-2.40;74.10
42841;DHT22;28491;46.898;7.660;2022-12-18T00:07:03;-2.30;75.00
42841;DHT22;28491;46.898;7.660;2022-12-18T00:09:29;-2.30;74.30
42841;DHT22;28491;46.898;7.660;2022-12-18T00:11:54;-2.20;74.90
42841;DHT22;28491;46.898;7.660;2022-12-18T00:14:20;-2.30;74.50
42841;DHT22;28491;46.898;7.660;2022-12-18T00:16:46;-2.30;75.00
42841;DHT22;28491;46.898;7.660;2022-12-18T00:19:13;-2.20;75.20
42841;DHT22;28491;46.898;7.660;2022-12-18T00:21:39;-2.30;74.60
42841;DHT22;28491;46.898;7.660;2022-12-18T00:24:04;-2.20;74.90
42841;DHT22;28491;46.898;7.660;2022-12-18T00:26:32;-2.20;74.50
42841;DHT22;28491;46.898;7.660;2022-12-18T00:29:00;-2.30;74.10
42841;DHT22;28491;46.898;7.660;2022-12-18T00:31:26;-2.20;74.20
42841;DHT22;28491;46.898;7.660;2022-12-18T00:33:53;-2.20;73.70
42841;DHT22;28491;46.898;7.660;2022-12-18T00:36:29;-2.20;73.70
42841;DHT22;28491;46.898;7.660;2022-12-18T00:38:57;-2.20;73.50
42841;DHT22;28491;46.898;7.660;2022-12-18T00:41:24;-2.20;73.00
42841;DHT22;28491;46.898;7.660;2022-12-18T00:44:10;-2.20;73.10
42841;DHT22;28491;46.898;7.660;2022-12-18T00:46:37;-2.20;72.20
42841;DHT22;28491;46.898;7.660;2022-12-18T00:49:03;-2.20;71.90
42841;DHT22;28491;46.898;7.660;2022-12-18T00:51:29;-2.30;72.30
42841;DHT22;28491;46.898;7.660;2022-12-18T00:53:54;-2.20;72.70
42841;DHT22;28491;46.898;7.660;2022-12-18T00:56:21;-2.30;72.30
42841;DHT22;28491;46.898;7.660;2022-12-18T00:58:47;-2.40;71.80
42841;DHT22;28491;46.898;7.660;2022-12-18T01:01:13;-2.40;72.90
42841;DHT22;28491;46.898;7.660;2022-12-18T01:03:38;-2.40;72.80
42841;DHT22;28491;46.898;7.660;2022-12-18T01:06:08;-2.30;73.80
42841;DHT22;28491;46.898;7.660;2022-12-18T01:08:34;-2.30;74.50
42841;DHT22;28491;46.898;7.660;2022-12-18T01:11:00;-2.30;74.00
42841;DHT22;28491;46.898;7.660;2022-12-18T01:13:26;-2.30;74.00
42841;DHT22;28491;46.898;7.660;2022-12-18T01:15:52;-2.30;74.50
42841;DHT22;28491;46.898;7.660;2022-12-18T01:18:17;-2.30;74.60
42841;DHT22;28491;46.898;7.660;2022-12-18T01:20:43;-2.30;74.50
42841;DHT22;28491;46.898;7.660;2022-12-18T01:23:09;-2.20;74.80
42841;DHT22;28491;46.898;7.660;2022-12-18T01:25:36;-2.20;74.00
42841;DHT22;28491;46.898;7.660;2022-12-18T01:28:02;-2.20;73.50
42841;DHT22;28491;46.898;7.660;2022-12-18T01:30:27;-2.30;72.60
42841;DHT22;28491;46.898;7.660;2022-12-18T01:32:53;-2.40;71.90
42841;DHT22;28491;46.898;7.660;2022-12-18T01:35:18;-2.30;72.50
42841;DHT22;28491;46.898;7.660;2022-12-18T01:37:44;-2.30;73.20
42841;DHT22;28491;46.898;7.660;2022-12-18T01:40:10;-2.30;73.10
42841;DHT22;28491;46.898;7.660;2022-12-18T01:42:36;-2.40;72.90
42841;DHT22;28491;46.898;7.660;2022-12-18T01:52:41;-2.30;73.50
42841;DHT22;28491;46.898;7.660;2022-12-18T01:55:10;-2.30;72.50
42841;DHT22;28491;46.898;7.660;2022-12-18T01:57:36;-2.50;72.60
42841;DHT22;28491;46.898;7.660;2022-12-18T02:00:12;-2.50;73.30
42841;DHT22;28491;46.898;7.660;2022-12-18T02:02:39;-2.40;75.70
42841;DHT22;28491;46.898;7.660;2022-12-18T02:05:05;-2.50;74.70
42841;DHT22;28491;46.898;7.660;2022-12-18T02:07:37;-2.50;74.30
42841;DHT22;28491;46.898;7.660;2022-12-18T02:18:19;-2.50;74.70
42841;DHT22;28491;46.898;7.660;2022-12-18T02:23:47;-2.50;74.90
42841;DHT22;28491;46.898;7.660;2022-12-18T02:29:32;-2.50;74.70
42841;DHT22;28491;46.898;7.660;2022-12-18T02:31:45;-2.50;75.10
42841;DHT22;28491;46.898;7.660;2022-12-18T02:34:13;-2.50;74.50
42841;DHT22;28491;46.898;7.660;2022-12-18T02:36:41;-2.40;74.60
42841;DHT22;28491;46.898;7.660;2022-12-18T02:39:10;-2.40;74.70
42841;DHT22;28491;46.898;7.660;2022-12-18T02:41:37;-2.50;73.60
42841;DHT22;28491;46.898;7.660;2022-12-18T02:44:08;-2.40;74.00
42841;DHT22;28491;46.898;7.660;2022-12-18T02:46:46;-2.40;74.00
42841;DHT22;28491;46.898;7.660;2022-12-18T02:49:36;-2.40;73.80
42841;DHT22;28491;46.898;7.660;2022-12-18T02:52:21;-2.40;73.50
42841;DHT22;28491;46.898;7.660;2022-12-18T03:00:35;-2.40;73.80
42841;DHT22;28491;46.898;7.660;2022-12-18T03:03:11;-2.40;73.90
42841;DHT22;28491;46.898;7.660;2022-12-18T03:05:52;-2.50;73.20
42841;DHT22;28491;46.898;7.660;2022-12-18T03:08:30;-2.50;73.70
42841;DHT22;28491;46.898;7.660;2022-12-18T03:11:08;-2.40;74.80
42841;DHT22;28491;46.898;7.660;2022-12-18T03:13:41;-2.40;74.10
42841;DHT22;28491;46.898;7.660;2022-12-18T03:16:12;-2.40;73.70
42841;DHT22;28491;46.898;7.660;2022-12-18T03:21:14;-2.50;72.90
42841;DHT22;28491;46.898;7.660;2022-12-18T03:23:45;-2.50;74.20
42841;DHT22;28491;46.898;7.660;2022-12-18T03:26:15;-2.50;75.20
42841;DHT22;28491;46.898;7.660;2022-12-18T03:28:46;-2.50;76.40
42841;DHT22;28491;46.898;7.660;2022-12-18T03:31:12;-2.50;76.20
42841;DHT22;28491;46.898;7.660;2022-12-18T03:33:53;-2.50;75.60
42841;DHT22;28491;46.898;7.660;2022-12-18T03:36:19;-2.50;76.80
42841;DHT22;28491;46.898;7.660;2022-12-18T03:38:45;-2.40;78.80
42841;DHT22;28491;46.898;7.660;2022-12-18T03:49:06;-2.30;87.60
42841;DHT22;28491;46.898;7.660;2022-12-18T03:51:42;-2.20;88.60
42841;DHT22;28491;46.898;7.660;2022-12-18T03:54:12;-2.30;86.90
42841;DHT22;28491;46.898;7.660;2022-12-18T03:56:46;-2.30;86.40
42841;DHT22;28491;46.898;7.660;2022-12-18T03:59:15;-2.30;86.00
42841;DHT22;28491;46.898;7.660;2022-12-18T04:01:46;-2.30;86.80
42841;DHT22;28491;46.898;7.660;2022-12-18T04:04:12;-2.30;88.10
42841;DHT22;28491;46.898;7.660;2022-12-18T04:06:38;-2.30;88.00
42841;DHT22;28491;46.898;7.660;2022-12-18T04:09:05;-2.30;87.70
42841;DHT22;28491;46.898;7.660;2022-12-18T04:11:31;-2.30;87.20
42841;DHT22;28491;46.898;7.660;2022-12-18T04:13:57;-2.40;86.00
42841;DHT22;28491;46.898;7.660;2022-12-18T04:16:26;-2.40;86.30
42841;DHT22;28491;46.898;7.660;2022-12-18T04:18:52;-2.30;88.30
42841;DHT22;28491;46.898;7.660;2022-12-18T04:21:18;-2.30;89.80
42841;DHT22;28491;46.898;7.660;2022-12-18T04:23:44;-2.30;88.50
42841;DHT22;28491;46.898;7.660;2022-12-18T04:26:10;-2.30;89.20
42841;DHT22;28491;46.898;7.660;2022-12-18T04:28:35;-2.20;89.10
42841;DHT22;28491;46.898;7.660;2022-12-18T04:31:01;-2.30;88.20
42841;DHT22;28491;46.898;7.660;2022-12-18T04:33:27;-2.30;86.10
42841;DHT22;28491;46.898;7.660;2022-12-18T04:35:52;-2.30;84.80
42841;DHT22;28491;46.898;7.660;2022-12-18T04:38:18;-2.30;84.80
42841;DHT22;28491;46.898;7.660;2022-12-18T04:40:43;-2.30;85.30
42841;DHT22;28491;46.898;7.660;2022-12-18T04:43:09;-2.30;87.50
42841;DHT22;28491;46.898;7.660;2022-12-18T04:45:35;-2.30;87.40
42841;DHT22;28491;46.898;7.660;2022-12-18T04:48:02;-2.20;87.80
42841;DHT22;28491;46.898;7.660;2022-12-18T04:50:28;-2.30;86.80
42841;DHT22;28491;46.898;7.660;2022-12-18T04:52:54;-2.30;87.40
42841;DHT22;28491;46.898;7.660;2022-12-18T04:55:20;-2.30;86.80
42841;DHT22;28491;46.898;7.660;2022-12-18T04:57:46;-2.30;86.20
42841;DHT22;28491;46.898;7.660;2022-12-18T05:00:11;-2.30;83.90
42841;DHT22;28491;46.898;7.660;2022-12-18T05:02:37;-2.30;80.70
42841;DHT22;28491;46.898;7.660;2022-12-18T05:05:03;-2.50;78.90
42841;DHT22;28491;46.898;7.660;2022-12-18T05:07:29;-2.50;79.90
42841;DHT22;28491;46.898;7.660;2022-12-18T05:09:55;-2.50;79.30
42841;DHT22;28491;46.898;7.660;2022-12-18T05:12:20;-2.40;79.80
42841;DHT22;28491;46.898;7.660;2022-12-18T05:14:46;-2.40;79.70
42841;DHT22;28491;46.898;7.660;2022-12-18T05:17:11;-2.40;80.10
42841;DHT22;28491;46.898;7.660;2022-12-18T05:19:37;-2.50;79.30
42841;DHT22;28491;46.898;7.660;2022-12-18T05:22:03;-2.50;78.70
42841;DHT22;28491;46.898;7.660;2022-12-18T05:24:29;-2.60;78.40
42841;DHT22;28491;46.898;7.660;2022-12-18T05:26:55;-2.60;78.20
42841;DHT22;28491;46.898;7.660;2022-12-18T05:29:20;-2.60;78.60
42841;DHT22;28491;46.898;7.660;2022-12-18T05:31:46;-2.60;79.00
42841;DHT22;28491;46.898;7.660;2022-12-18T05:34:11;-2.60;79.40
42841;DHT22;28491;46.898;7.660;2022-12-18T05:36:37;-2.60;79.60
42841;DHT22;28491;46.898;7.660;2022-12-18T05:39:02;-2.60;80.00
42841;DHT22;28491;46.898;7.660;2022-12-18T05:41:28;-2.50;82.10
42841;DHT22;28491;46.898;7.660;2022-12-18T05:43:54;-2.50;80.80
42841;DHT22;28491;46.898;7.660;2022-12-18T05:46:19;-2.50;79.70
42841;DHT22;28491;46.898;7.660;2022-12-18T05:48:45;-2.50;80.10
42841;DHT22;28491;46.898;7.660;2022-12-18T05:51:13;-2.40;81.50
42841;DHT22;28491;46.898;7.660;2022-12-18T05:53:40;-2.50;82.00
42841;DHT22;28491;46.898;7.660;2022-12-18T05:56:08;-2.50;82.60
42841;DHT22;28491;46.898;7.660;2022-12-18T05:58:34;-2.40;83.00
42841;DHT22;28491;46.898;7.660;2022-12-18T06:03:36;-2.40;81.50
42841;DHT22;28491;46.898;7.660;2022-12-18T06:06:02;-2.30;81.40
42841;DHT22;28491;46.898;7.660;2022-12-18T06:08:28;-2.40;80.50
42841;DHT22;28491;46.898;7.660;2022-12-18T06:10:54;-2.40;80.70
42841;DHT22;28491;46.898;7.660;2022-12-18T06:13:19;-2.40;80.00
42841;DHT22;28491;46.898;7.660;2022-12-18T06:15:45;-2.40;80.80
42841;DHT22;28491;46.898;7.660;2022-12-18T06:18:11;-2.40;80.70
42841;DHT22;28491;46.898;7.660;2022-12-18T06:20:36;-2.40;80.00
42841;DHT22;28491;46.898;7.660;2022-12-18T06:23:05;-2.40;80.80
42841;DHT22;28491;46.898;7.660;2022-12-18T06:25:31;-2.40;80.40
42841;DHT22;28491;46.898;7.660;2022-12-18T06:27:57;-2.50;80.50
42841;DHT22;28491;46.898;7.660;2022-12-18T06:30:22;-2.50;80.00
42841;DHT22;28491;46.898;7.660;2022-12-18T06:32:49;-2.40;79.50
42841;DHT22;28491;46.898;7.660;2022-12-18T06:35:15;-2.40;80.50
42841;DHT22;28491;46.898;7.660;2022-12-18T06:37:40;-2.40;82.00
42841;DHT22;28491;46.898;7.660;2022-12-18T06:40:06;-2.30;83.60
42841;DHT22;28491;46.898;7.660;2022-12-18T06:42:32;-2.30;84.90
42841;DHT22;28491;46.898;7.660;2022-12-18T06:44:57;-2.20;85.40
42841;DHT22;28491;46.898;7.660;2022-12-18T06:47:23;-2.20;85.50
42841;DHT22;28491;46.898;7.660;2022-12-18T06:49:49;-2.20;85.60
42841;DHT22;28491;46.898;7.660;2022-12-18T06:52:16;-2.20;83.70
42841;DHT22;28491;46.898;7.660;2022-12-18T06:54:41;-2.30;83.00
42841;DHT22;28491;46.898;7.660;2022-12-18T06:57:07;-2.30;82.20
42841;DHT22;28491;46.898;7.660;2022-12-18T06:59:32;-2.20;84.00
42841;DHT22;28491;46.898;7.660;2022-12-18T07:01:58;-2.30;84.00
42841;DHT22;28491;46.898;7.660;2022-12-18T07:04:30;-2.20;85.30
42841;DHT22;28491;46.898;7.660;2022-12-18T07:06:56;-2.10;86.50
42841;DHT22;28491;46.898;7.660;2022-12-18T07:09:23;-2.20;84.60
42841;DHT22;28491;46.898;7.660;2022-12-18T07:11:49;-2.20;83.60
42841;DHT22;28491;46.898;7.660;2022-12-18T07:14:14;-2.20;82.70
42841;DHT22;28491;46.898;7.660;2022-12-18T07:16:40;-2.10;84.50
42841;DHT22;28491;46.898;7.660;2022-12-18T07:19:06;-2.10;84.00
42841;DHT22;28491;46.898;7.660;2022-12-18T07:21:31;-2.10;82.40
42841;DHT22;28491;46.898;7.660;2022-12-18T07:23:57;-2.20;81.30
42841;DHT22;28491;46.898;7.660;2022-12-18T07:26:22;-2.20;81.30
42841;DHT22;28491;46.898;7.660;2022-12-18T07:28:48;-2.20;81.90
42841;DHT22;28491;46.898;7.660;2022-12-18T07:31:18;-2.10;83.70
42841;DHT22;28491;46.898;7.660;2022-12-18T07:33:45;-2.10;84.50
42841;DHT22;28491;46.898;7.660;2022-12-18T07:36:11;-2.10;84.70
42841;DHT22;28491;46.898;7.660;2022-12-18T07:38:37;-2.00;86.90
42841;DHT22;28491;46.898;7.660;2022-12-18T07:41:08;-2.00;87.40
42841;DHT22;28491;46.898;7.660;2022-12-18T07:43:34;-1.90;86.90
42841;DHT22;28491;46.898;7.660;2022-12-18T07:46:00;-1.90;86.40
42841;DHT22;28491;46.898;7.660;2022-12-18T07:48:26;-1.80;86.50
42841;DHT22;28491;46.898;7.660;2022-12-18T07:50:52;-1.90;83.70
42841;DHT22;28491;46.898;7.660;2022-12-18T07:53:18;-1.90;83.60
42841;DHT22;28491;46.898;7.660;2022-12-18T07:55:43;-1.90;84.50
42841;DHT22;28491;46.898;7.660;2022-12-18T07:58:09;-1.90;83.20
42841;DHT22;28491;46.898;7.660;2022-12-18T08:00:35;-1.90;83.20
42841;DHT22;28491;46.898;7.660;2022-12-18T08:03:00;-1.90;82.20
42841;DHT22;28491;46.898;7.660;2022-12-18T08:05:27;-1.90;83.70
42841;DHT22;28491;46.898;7.660;2022-12-18T08:07:52;-1.80;84.90
42841;DHT22;28491;46.898;7.660;2022-12-18T08:10:19;-1.70;84.70
42841;DHT22;28491;46.898;7.660;2022-12-18T08:12:44;-1.70;84.80
42841;DHT22;28491;46.898;7.660;2022-12-18T08:15:10;-1.70;81.90
42841;DHT22;28491;46.898;7.660;2022-12-18T08:17:36;-1.60;81.30
42841;DHT22;28491;46.898;7.660;2022-12-18T08:20:02;-1.60;81.70
42841;DHT22;28491;46.898;7.660;2022-12-18T08:22:27;-1.50;80.50
42841;DHT22;28491;46.898;7.660;2022-12-18T08:24:53;-1.40;77.90
42841;DHT22;28491;46.898;7.660;2022-12-18T08:27:18;-1.40;75.50
42841;DHT22;28491;46.898;7.660;2022-12-18T08:29:44;-1.50;72.90
42841;DHT22;28491;46.898;7.660;2022-12-18T08:32:09;-1.50;73.50
42841;DHT22;28491;46.898;7.660;2022-12-18T08:34:35;-1.60;73.00
42841;DHT22;28491;46.898;7.660;2022-12-18T08:37:01;-1.70;74.30
42841;DHT22;28491;46.898;7.660;2022-12-18T08:39:26;-1.60;76.20
42841;DHT22;28491;46.898;7.660;2022-12-18T08:41:52;-1.50;76.40
42841;DHT22;28491;46.898;7.660;2022-12-18T08:44:36;-1.40;77.80
42841;DHT22;28491;46.898;7.660;2022-12-18T08:47:05;-1.30;77.20
42841;DHT22;28491;46.898;7.660;2022-12-18T08:49:31;-1.30;76.60
42841;DHT22;28491;46.898;7.660;2022-12-18T08:51:57;-1.30;75.30
42841;DHT22;28491;46.898;7.660;2022-12-18T08:54:23;-1.40;72.20
42841;DHT22;28491;46.898;7.660;2022-12-18T08:56:49;-1.40;71.90
42841;DHT22;28491;46.898;7.660;2022-12-18T08:59:15;-1.40;71.10
42841;DHT22;28491;46.898;7.660;2022-12-18T09:01:41;-1.40;70.70
42841;DHT22;28491;46.898;7.660;2022-12-18T09:04:11;-1.40;71.50
42841;DHT22;28491;46.898;7.660;2022-12-18T09:06:37;-1.40;70.70
42841;DHT22;28491;46.898;7.660;2022-12-18T09:09:03;-1.40;71.50
42841;DHT22;28491;46.898;7.660;2022-12-18T09:11:30;-1.40;69.50
42841;DHT22;28491;46.898;7.660;2022-12-18T09:13:57;-1.50;69.80
42841;DHT22;28491;46.898;7.660;2022-12-18T09:16:24;-1.60;69.60
42841;DHT22;28491;46.898;7.660;2022-12-18T09:18:49;-1.60;69.80
42841;DHT22;28491;46.898;7.660;2022-12-18T09:21:18;-1.50;70.50
42841;DHT22;28491;46.898;7.660;2022-12-18T09:23:48;-1.40;71.20
42841;DHT22;28491;46.898;7.660;2022-12-18T09:26:14;-1.30;71.70
42841;DHT22;28491;46.898;7.660;2022-12-18T09:28:39;-1.20;72.20
42841;DHT22;28491;46.898;7.660;2022-12-18T09:31:06;-1.10;72.60
42841;DHT22;28491;46.898;7.660;2022-12-18T09:33:33;-1.00;72.50
42841;DHT22;28491;46.898;7.660;2022-12-18T09:36:02;-0.90;70.20
42841;DHT22;28491;46.898;7.660;2022-12-18T09:38:28;-1.00;69.70
42841;DHT22;28491;46.898;7.660;2022-12-18T09:41:39;-0.90;71.10
42841;DHT22;28491;46.898;7.660;2022-12-18T09:43:50;-0.80;71.10
42841;DHT22;28491;46.898;7.660;2022-12-18T09:46:20;-0.80;69.70
42841;DHT22;28491;46.898;7.660;2022-12-18T09:48:52;-0.80;70.00
42841;DHT22;28491;46.898;7.660;2022-12-18T09:51:24;-0.80;69.70
42841;DHT22;28491;46.898;7.660;2022-12-18T09:54:07;-0.80;69.40
42841;DHT22;28491;46.898;7.660;2022-12-18T09:56:40;-0.80;69.60
42841;DHT22;28491;46.898;7.660;2022-12-18T09:59:21;-0.80;69.10
42841;DHT22;28491;46.898;7.660;2022-12-18T10:01:47;-0.80;68.30
42841;DHT22;28491;46.898;7.660;2022-12-18T10:04:13;-0.80;68.50
42841;DHT22;28491;46.898;7.660;2022-12-18T10:06:58;-0.80;68.80
42841;DHT22;28491;46.898;7.660;2022-12-18T10:09:37;-0.70;68.40
42841;DHT22;28491;46.898;7.660;2022-12-18T10:15:24;-0.80;66.90
42841;DHT22;28491;46.898;7.660;2022-12-18T10:18:02;-0.70;68.50
42841;DHT22;28491;46.898;7.660;2022-12-18T10:20:51;-0.70;68.80
42841;DHT22;28491;46.898;7.660;2022-12-18T10:26:08;-0.50;66.90
42841;DHT22;28491;46.898;7.660;2022-12-18T10:28:37;-0.50;66.80
42841;DHT22;28491;46.898;7.660;2022-12-18T10:31:06;-0.40;65.80
42841;DHT22;28491;46.898;7.660;2022-12-18T10:33:33;-0.50;65.00
42841;DHT22;28491;46.898;7.660;2022-12-18T10:35:59;-0.60;65.00
42841;DHT22;28491;46.898;7.660;2022-12-18T10:38:30;-0.90;64.80
42841;DHT22;28491;46.898;7.660;2022-12-18T10:41:06;-1.10;65.60
42841;DHT22;28491;46.898;7.660;2022-12-18T10:43:36;-1.00;66.50
42841;DHT22;28491;46.898;7.660;2022-12-18T10:51:05;-0.60;66.20
42841;DHT22;28491;46.898;7.660;2022-12-18T10:53:34;-0.50;64.70
42841;DHT22;28491;46.898;7.660;2022-12-18T10:56:00;-0.50;64.50
42841;DHT22;28491;46.898;7.660;2022-12-18T10:58:38;-0.30;63.70
42841;DHT22;28491;46.898;7.660;2022-12-18T11:01:11;-0.30;63.00
42841;DHT22;28491;46.898;7.660;2022-12-18T11:03:45;-0.40;61.30
42841;DHT22;28491;46.898;7.660;2022-12-18T11:06:14;-0.40;61.60
42841;DHT22;28491;46.898;7.660;2022-12-18T11:08:41;-0.40;61.70
42841;DHT22;28491;46.898;7.660;2022-12-18T11:11:19;-0.40;61.90
42841;DHT22;28491;46.898;7.660;2022-12-18T11:14:04;-0.30;61.80
42841;DHT22;28491;46.898;7.660;2022-12-18T11:16:33;-0.40;62.00
42841;DHT22;28491;46.898;7.660;2022-12-18T11:19:21;-0.40;62.60
42841;DHT22;28491;46.898;7.660;2022-12-18T11:21:47;-0.40;62.90
42841;DHT22;28491;46.898;7.660;2022-12-18T11:26:53;-0.30;64.20
42841;DHT22;28491;46.898;7.660;2022-12-18T11:29:27;-0.20;62.80
42841;DHT22;28491;46.898;7.660;2022-12-18T11:37:34;0.30;61.60
42841;DHT22;28491;46.898;7.660;2022-12-18T11:40:09;0.30;60.70
42841;DHT22;28491;46.898;7.660;2022-12-18T11:43:05;0.20;57.80
42841;DHT22;28491;46.898;7.660;2022-12-18T11:45:36;0.20;61.00
42841;DHT22;28491;46.898;7.660;2022-12-18T11:48:16;0.20;61.50
42841;DHT22;28491;46.898;7.660;2022-12-18T11:53:12;0.20;61.30
42841;DHT22;28491;46.898;7.660;2022-12-18T12:01:16;0.00;60.70
42841;DHT22;28491;46.898;7.660;2022-12-18T12:12:39;0.10;61.90
42841;DHT22;28491;46.898;7.660;2022-12-18T12:18:07;0.20;62.20
42841;DHT22;28491;46.898;7.660;2022-12-18T12:20:46;0.30;61.90
42841;DHT22;28491;46.898;7.660;2022-12-18T12:23:23;0.40;61.60
42841;DHT22;28491;46.898;7.660;2022-12-18T12:26:06;0.30;61.10
42841;DHT22;28491;46.898;7.660;2022-12-18T12:29:01;0.30;62.00
42841;DHT22;28491;46.898;7.660;2022-12-18T12:31:33;0.10;61.00
42841;DHT22;28491;46.898;7.660;2022-12-18T12:34:13;0.10;62.20
42841;DHT22;28491;46.898;7.660;2022-12-18T12:39:23;0.00;62.20
42841;DHT22;28491;46.898;7.660;2022-12-18T12:41:52;0.10;63.50
42841;DHT22;28491;46.898;7.660;2022-12-18T12:44:44;0.20;63.00
42841;DHT22;28491;46.898;7.660;2022-12-18T12:47:18;0.00;61.80
42841;DHT22;28491;46.898;7.660;2022-12-18T12:49:46;0.00;62.80
42841;DHT22;28491;46.898;7.660;2022-12-18T12:55:02;-0.30;61.70
42841;DHT22;28491;46.898;7.660;2022-12-18T12:57:40;-0.40;63.00
42841;DHT22;28491;46.898;7.660;2022-12-18T13:00:16;-0.50;63.60
42841;DHT22;28491;46.898;7.660;2022-12-18T13:05:50;-0.40;63.80
42841;DHT22;28491;46.898;7.660;2022-12-18T13:08:25;-0.50;63.30
42841;DHT22;28491;46.898;7.660;2022-12-18T13:10:52;-0.40;64.30
42841;DHT22;28491;46.898;7.660;2022-12-18T13:13:54;-0.40;63.60
42841;DHT22;28491;46.898;7.660;2022-12-18T13:16:22;-0.50;63.30
42841;DHT22;28491;46.898;7.660;2022-12-18T13:18:52;-0.60;62.80
42841;DHT22;28491;46.898;7.660;2022-12-18T13:23:50;-0.60;65.20
42841;DHT22;28491;46.898;7.660;2022-12-18T13:34:35;-0.60;64.70
42841;DHT22;28491;46.898;7.660;2022-12-18T13:39:57;-0.20;65.40
42841;DHT22;28491;46.898;7.660;2022-12-18T13:45:42;-0.30;64.80
42841;DHT22;28491;46.898;7.660;2022-12-18T13:48:19;-0.40;65.20
42841;DHT22;28491;46.898;7.660;2022-12-18T13:50:55;-0.50;64.10
42841;DHT22;28491;46.898;7.660;2022-12-18T13:53:26;-0.60;64.40
42841;DHT22;28491;46.898;7.660;2022-12-18T13:55:53;-0.60;65.70
42841;DHT22;28491;46.898;7.660;2022-12-18T13:58:18;-0.50;65.90
42841;DHT22;28491;46.898;7.660;2022-12-18T14:00:44;-0.50;65.60
42841;DHT22;28491;46.898;7.660;2022-12-18T14:03:22;-0.50;66.10
42841;DHT22;28491;46.898;7.660;2022-12-18T14:05:58;-0.70;65.40
42841;DHT22;28491;46.898;7.660;2022-12-18T14:08:25;-0.70;65.90
42841;DHT22;28491;46.898;7.660;2022-12-18T14:10:52;-0.80;65.90
42841;DHT22;28491;46.898;7.660;2022-12-18T14:13:36;-0.90;66.40
42841;DHT22;28491;46.898;7.660;2022-12-18T14:16:04;-0.80;66.60
42841;DHT22;28491;46.898;7.660;2022-12-18T14:20:58;-1.00;66.90
42841;DHT22;28491;46.898;7.660;2022-12-18T14:23:38;-1.00;67.10
42841;DHT22;28491;46.898;7.660;2022-12-18T14:26:25;-1.10;67.10
42841;DHT22;28491;46.898;7.660;2022-12-18T14:28:52;-1.20;67.30
42841;DHT22;28491;46.898;7.660;2022-12-18T14:31:20;-1.30;67.70
42841;DHT22;28491;46.898;7.660;2022-12-18T14:33:46;-1.30;68.60
42841;DHT22;28491;46.898;7.660;2022-12-18T14:36:16;-1.20;68.60
42841;DHT22;28491;46.898;7.660;2022-12-18T14:38:42;-1.30;68.30
42841;DHT22;28491;46.898;7.660;2022-12-18T14:43:38;-1.20;68.80
42841;DHT22;28491;46.898;7.660;2022-12-18T14:46:06;-1.20;67.00
42841;DHT22;28491;46.898;7.660;2022-12-18T14:48:50;-1.30;67.40
42841;DHT22;28491;46.898;7.660;2022-12-18T14:51:19;-1.30;67.60
42841;DHT22;28491;46.898;7.660;2022-12-18T14:56:18;-1.60;65.70
42841;DHT22;28491;46.898;7.660;2022-12-18T14:58:55;-1.70;65.90
42841;DHT22;28491;46.898;7.660;2022-12-18T15:04:25;-2.00;67.10
42841;DHT22;28491;46.898;7.660;2022-12-18T15:07:19;-2.00;68.00
42841;DHT22;28491;46.898;7.660;2022-12-18T15:12:35;-2.10;69.90
42841;DHT22;28491;46.898;7.660;2022-12-18T15:15:00;-2.30;68.90
42841;DHT22;28491;46.898;7.660;2022-12-18T15:17:26;-2.50;68.40
42841;DHT22;28491;46.898;7.660;2022-12-18T15:19:58;-2.50;69.70
42841;DHT22;28491;46.898;7.660;2022-12-18T15:22:29;-2.60;70.90
42841;DHT22;28491;46.898;7.660;2022-12-18T15:24:56;-2.60;73.90
42841;DHT22;28491;46.898;7.660;2022-12-18T15:27:34;-2.50;76.40
42841;DHT22;28491;46.898;7.660;2022-12-18T15:32:39;-2.60;78.40
42841;DHT22;28491;46.898;7.660;2022-12-18T15:37:33;-2.30;91.60
42841;DHT22;28491;46.898;7.660;2022-12-18T15:39:58;-2.10;94.30
42841;DHT22;28491;46.898;7.660;2022-12-18T15:42:24;-2.00;95.30
42841;DHT22;28491;46.898;7.660;2022-12-18T15:45:12;-2.00;95.60
42841;DHT22;28491;46.898;7.660;2022-12-18T15:47:38;-2.00;95.10
42841;DHT22;28491;46.898;7.660;2022-12-18T15:50:04;-2.10;94.10
42841;DHT22;28491;46.898;7.660;2022-12-18T15:52:32;-2.20;93.60
42841;DHT22;28491;46.898;7.660;2022-12-18T15:55:02;-2.20;93.70
42841;DHT22;28491;46.898;7.660;2022-12-18T15:57:47;-2.30;93.70
42841;DHT22;28491;46.898;7.660;2022-12-18T16:00:12;-2.30;93.80
42841;DHT22;28491;46.898;7.660;2022-12-18T16:02:38;-2.30;94.20
42841;DHT22;28491;46.898;7.660;2022-12-18T16:05:13;-2.20;94.60
42841;DHT22;28491;46.898;7.660;2022-12-18T16:07:40;-2.20;94.90
42841;DHT22;28491;46.898;7.660;2022-12-18T16:10:05;-2.20;95.10
42841;DHT22;28491;46.898;7.660;2022-12-18T16:12:31;-2.30;95.40
42841;DHT22;28491;46.898;7.660;2022-12-18T16:14:57;-2.20;95.80
42841;DHT22;28491;46.898;7.660;2022-12-18T16:17:22;-2.30;96.10
42841;DHT22;28491;46.898;7.660;2022-12-18T16:19:48;-2.30;96.60
42841;DHT22;28491;46.898;7.660;2022-12-18T16:22:28;-2.40;97.00
42841;DHT22;28491;46.898;7.660;2022-12-18T16:24:55;-2.40;97.30
42841;DHT22;28491;46.898;7.660;2022-12-18T16:27:22;-2.30;97.60
42841;DHT22;28491;46.898;7.660;2022-12-18T16:29:48;-2.40;97.70
42841;DHT22;28491;46.898;7.660;2022-12-18T16:32:17;-2.30;97.90
42841;DHT22;28491;46.898;7.660;2022-12-18T16:34:43;-2.30;98.10
42841;DHT22;28491;46.898;7.660;2022-12-18T16:37:11;-2.30;98.20
42841;DHT22;28491;46.898;7.660;2022-12-18T16:39:38;-2.30;98.30
42841;DHT22;28491;46.898;7.660;2022-12-18T16:42:17;-2.30;98.30
42841;DHT22;28491;46.898;7.660;2022-12-18T16:44:45;-2.30;98.30
42841;DHT22;28491;46.898;7.660;2022-12-18T16:47:11;-2.40;98.30
42841;DHT22;28491;46.898;7.660;2022-12-18T16:49:37;-2.30;98.40
42841;DHT22;28491;46.898;7.660;2022-12-18T16:52:06;-2.40;98.30
42841;DHT22;28491;46.898;7.660;2022-12-18T16:54:31;-2.40;98.30
42841;DHT22;28491;46.898;7.660;2022-12-18T16:56:59;-2.50;98.40
42841;DHT22;28491;46.898;7.660;2022-12-18T16:59:25;-2.40;98.40
42841;DHT22;28491;46.898;7.660;2022-12-18T17:01:52;-2.40;98.50
42841;DHT22;28491;46.898;7.660;2022-12-18T17:04:17;-2.50;98.50
42841;DHT22;28491;46.898;7.660;2022-12-18T17:06:44;-2.50;98.60
42841;DHT22;28491;46.898;7.660;2022-12-18T17:09:12;-2.50;98.60
42841;DHT22;28491;46.898;7.660;2022-12-18T17:11:39;-2.60;98.60
42841;DHT22;28491;46.898;7.660;2022-12-18T17:14:06;-2.60;98.50
42841;DHT22;28491;46.898;7.660;2022-12-18T17:16:32;-2.70;98.50
42841;DHT22;28491;46.898;7.660;2022-12-18T17:18:57;-2.70;98.50
42841;DHT22;28491;46.898;7.660;2022-12-18T17:21:23;-2.80;98.50
42841;DHT22;28491;46.898;7.660;2022-12-18T17:23:48;-2.80;98.50
42841;DHT22;28491;46.898;7.660;2022-12-18T17:26:14;-2.80;98.50
42841;DHT22;28491;46.898;7.660;2022-12-18T17:28:40;-2.80;98.50
42841;DHT22;28491;46.898;7.660;2022-12-18T17:31:20;-2.70;98.40
42841;DHT22;28491;46.898;7.660;2022-12-18T17:33:47;-2.80;98.20
42841;DHT22;28491;46.898;7.660;2022-12-18T17:36:13;-2.80;98.10
42841;DHT22;28491;46.898;7.660;2022-12-18T17:38:38;-2.80;97.90
42841;DHT22;28491;46.898;7.660;2022-12-18T17:41:06;-2.70;97.80
42841;DHT22;28491;46.898;7.660;2022-12-18T17:43:33;-2.70;97.90
42841;DHT22;28491;46.898;7.660;2022-12-18T17:46:05;-2.60;97.90
42841;DHT22;28491;46.898;7.660;2022-12-18T17:48:32;-2.70;97.60